Time;durP1;ratioP1;P1;durP2;ratioP2;P2;SDS_P1;SDS_P2;PMS_P1;PMS_P2;Temp;Humidity;BMP_temperature;BMP_pressure;BME280_temperature;BME280_humidity;BME280_pressure;Samples;Min_cycle;Max_cycle;Signal;HPM_P1;HPM_P2
2022/07/25 00:00:59;;;;;;;6.62;4.10;;;;;;;14.84;72.50;101491.22;1682206;84;21118;-88
2022/07/25 00:03:25;;;;;;;5.55;4.33;;;;;;;14.83;72.51;101491.66;1682497;84;21147;-88
2022/07/25 00:05:52;;;;;;;6.55;3.75;;;;;;;14.84;72.60;101492.11;1679609;83;21753;-88
2022/07/25 00:08:19;;;;;;;8.83;3.62;;;;;;;14.84;72.60;101485.48;1672393;84;21405;-88
2022/07/25 00:10:46;;;;;;;5.33;3.75;;;;;;;14.83;72.61;101478.41;1672508;85;21543;-88
2022/07/25 00:13:14;;;;;;;5.03;3.77;;;;;;;14.83;72.70;101477.50;1653510;84;21119;-88
2022/07/25 00:15:41;;;;;;;5.78;4.30;;;;;;;14.83;72.75;101475.77;1675154;83;21076;-86
2022/07/25 00:18:08;;;;;;;6.17;3.80;;;;;;;14.83;72.77;101474.44;1670649;84;21790;-87
2022/07/25 00:20:34;;;;;;;5.85;4.05;;;;;;;14.81;72.79;101470.87;1665383;84;21100;-87
2022/07/25 00:23:01;;;;;;;7.03;3.72;;;;;;;14.83;72.89;101476.17;1672524;84;21115;-90
2022/07/25 00:25:28;;;;;;;5.25;3.83;;;;;;;14.81;72.87;101476.17;1672292;84;21118;-90
2022/07/25 00:27:55;;;;;;;5.22;4.15;;;;;;;14.82;72.92;101473.08;1662149;84;21088;-90
2022/07/25 00:30:21;;;;;;;4.72;3.80;;;;;;;14.81;72.98;101473.52;1697883;83;21718;-90
2022/07/25 00:32:48;;;;;;;5.30;3.83;;;;;;;14.82;73.02;101479.27;1670096;84;21189;-91
2022/07/25 00:35:15;;;;;;;5.53;3.50;;;;;;;14.82;73.00;101473.08;1661253;84;21157;-90
2022/07/25 00:37:41;;;;;;;4.85;3.87;;;;;;;14.82;73.04;101467.77;1666808;84;21112;-91
2022/07/25 00:40:10;;;;;;;4.50;4.08;;;;;;;14.82;73.05;101469.98;1692669;83;21058;-90
2022/07/25 00:42:37;;;;;;;4.95;3.67;;;;;;;14.83;73.11;101469.55;1648834;84;22580;-91
2022/07/25 00:45:05;;;;;;;7.55;4.20;;;;;;;14.84;73.14;101466.92;1661804;84;21041;-90
2022/07/25 00:47:34;;;;;;;5.37;4.10;;;;;;;14.86;73.12;101464.31;1702888;83;21097;-91
2022/07/25 00:50:01;;;;;;;6.62;4.28;;;;;;;14.85;73.08;101454.16;1694815;83;21082;-91
2022/07/25 00:52:28;;;;;;;6.47;3.80;;;;;;;14.85;73.16;101460.78;1648893;84;21153;-91
2022/07/25 00:54:55;;;;;;;5.90;3.83;;;;;;;14.86;73.17;101460.34;1661537;84;21751;-91
2022/07/25 00:57:22;;;;;;;4.58;3.60;;;;;;;14.86;73.11;101460.34;1690584;83;21043;-91
2022/07/25 00:59:49;;;;;;;6.22;3.80;;;;;;;14.84;73.10;101455.44;1692087;83;21131;-91
2022/07/25 01:02:16;;;;;;;5.37;3.50;;;;;;;14.82;73.14;101455.41;1682549;84;21429;-92
2022/07/25 01:04:42;;;;;;;7.12;3.70;;;;;;;14.82;73.16;101456.73;1690012;84;21881;-91
2022/07/25 01:07:09;;;;;;;7.20;4.05;;;;;;;14.82;73.18;101462.03;1674369;85;21693;-91
2022/07/25 01:09:36;;;;;;;5.47;3.92;;;;;;;14.81;73.18;101452.72;1674172;85;21131;-89
2022/07/25 01:12:03;;;;;;;5.37;3.87;;;;;;;14.81;73.23;101456.70;1671228;85;21131;-91
2022/07/25 01:14:30;;;;;;;5.25;4.28;;;;;;;14.78;73.21;101449.59;1674067;84;21167;-90
2022/07/25 01:16:57;;;;;;;5.10;4.05;;;;;;;14.77;73.20;101453.09;1668483;84;21084;-91
2022/07/25 01:19:25;;;;;;;5.80;4.22;;;;;;;14.76;73.27;101456.19;1683761;84;21859;-90
2022/07/25 01:21:52;;;;;;;9.48;4.33;;;;;;;14.75;73.27;101453.50;1669952;84;21032;-91
2022/07/25 01:24:18;;;;;;;5.45;3.70;;;;;;;14.74;73.28;101452.62;1670979;85;21371;-90
2022/07/25 01:26:45;;;;;;;5.45;3.90;;;;;;;14.73;73.29;101451.25;1666646;84;21162;-90
2022/07/25 01:29:12;;;;;;;5.83;3.70;;;;;;;14.70;73.27;101449.45;1670661;85;21068;-91
2022/07/25 01:31:42;;;;;;;6.42;4.33;;;;;;;14.67;73.29;101444.52;1670655;84;22664;-91
2022/07/25 01:34:07;;;;;;;6.72;3.92;;;;;;;14.67;73.39;101441.88;1670974;84;21091;-91
2022/07/25 01:36:34;;;;;;;3.85;3.45;;;;;;;14.65;73.36;101437.86;1658330;84;21091;-91
2022/07/25 01:39:00;;;;;;;5.87;4.15;;;;;;;14.65;73.41;101436.98;1693711;84;21097;-93
2022/07/25 01:41:27;;;;;;;7.95;4.45;;;;;;;14.63;73.42;101435.62;1669371;85;21523;-91
2022/07/25 01:43:55;;;;;;;6.85;3.95;;;;;;;14.62;73.42;101430.28;1673127;84;21795;-91
2022/07/25 01:46:21;;;;;;;9.05;4.33;;;;;;;14.62;73.51;101428.95;1670857;85;21097;-92
2022/07/25 01:48:48;;;;;;;5.75;3.60;;;;;;;14.62;73.46;101437.83;1669498;85;21370;-91
2022/07/25 01:51:15;;;;;;;6.28;4.05;;;;;;;14.61;73.50;101429.84;1692603;83;21097;-91
2022/07/25 01:53:41;;;;;;;5.33;3.52;;;;;;;14.60;73.47;101436.87;1672339;85;21103;-90
2022/07/25 01:56:08;;;;;;;5.00;3.22;;;;;;;14.56;73.48;101435.91;1669197;85;21766;-91
2022/07/25 01:58:35;;;;;;;6.15;4.10;;;;;;;14.56;73.52;101437.23;1673405;84;21078;-91
2022/07/25 02:01:05;;;;;;;5.67;3.90;;;;;;;14.54;73.55;101436.28;1684541;84;21007;-91
2022/07/25 02:03:31;;;;;;;8.28;3.83;;;;;;;14.52;73.56;101431.39;1680158;84;21517;-91
2022/07/25 02:06:03;;;;;;;4.85;3.67;;;;;;;14.51;73.60;101437.57;1682554;84;21087;-90
2022/07/25 02:08:30;;;;;;;9.83;4.05;;;;;;;14.51;73.68;101437.57;1683020;84;21786;-91
2022/07/25 02:10:57;;;;;;;6.00;3.15;;;;;;;14.50;73.64;101443.72;1682263;85;21366;-91
2022/07/25 02:13:24;;;;;;;5.42;3.60;;;;;;;14.49;73.71;101435.33;1710000;81;21074;-91
2022/07/25 02:15:51;;;;;;;6.75;3.65;;;;;;;14.47;73.65;101437.05;1670939;85;21064;-92
2022/07/25 02:18:18;;;;;;;7.60;4.12;;;;;;;14.45;73.70;101437.45;1695303;84;21462;-92
2022/07/25 02:20:44;;;;;;;5.22;3.75;;;;;;;14.45;73.69;101436.55;1670619;84;21761;-91
2022/07/25 02:23:11;;;;;;;5.33;3.45;;;;;;;14.43;73.65;101435.62;1668847;84;21542;-90
2022/07/25 02:25:41;;;;;;;7.60;3.83;;;;;;;14.39;73.63;101437.31;1670467;84;21100;-91
2022/07/25 02:28:08;;;;;;;9.10;4.35;;;;;;;14.39;73.74;101437.31;1667054;85;21100;-92
2022/07/25 02:30:34;;;;;;;5.87;3.70;;;;;;;14.37;73.75;101433.30;1657381;85;21129;-91
2022/07/25 02:33:01;;;;;;;5.95;3.55;;;;;;;14.39;73.77;101428.92;1670895;85;21761;-91
2022/07/25 02:35:28;;;;;;;4.87;3.83;;;;;;;14.39;73.78;101426.72;1663695;84;21091;-89
2022/07/25 02:37:54;;;;;;;9.18;4.05;;;;;;;14.41;73.86;101428.96;1670717;84;21076;-90
2022/07/25 02:40:21;;;;;;;7.37;3.92;;;;;;;14.43;73.86;101433.85;1667355;85;21088;-91
2022/07/25 02:42:48;;;;;;;5.37;3.90;;;;;;;14.41;73.83;101438.23;1669983;85;21107;-90
2022/07/25 02:45:15;;;;;;;7.05;3.75;;;;;;;14.42;73.91;101430.77;1670772;85;22528;-90
2022/07/25 02:47:41;;;;;;;4.28;3.77;;;;;;;14.46;73.88;101429.07;1667940;85;21882;-91
2022/07/25 02:50:08;;;;;;;5.95;4.00;;;;;;;14.45;73.91;101430.84;1668527;85;21673;-90
2022/07/25 02:52:36;;;;;;;6.12;3.90;;;;;;;14.47;74.00;101429.11;1669758;84;21144;-91
2022/07/25 02:55:03;;;;;;;7.67;4.50;;;;;;;14.52;74.06;101431.39;1671042;85;21125;-91
2022/07/25 02:57:32;;;;;;;6.35;3.90;;;;;;;14.53;73.94;101425.25;1651625;85;21745;-92
2022/07/25 02:59:59;;;;;;;5.30;4.00;;;;;;;14.57;74.01;101427.13;1668300;85;21142;-91
2022/07/25 03:02:26;;;;;;;6.03;3.55;;;;;;;14.60;73.91;101426.72;1681690;83;21101;-90
2022/07/25 03:04:52;;;;;;;7.25;4.50;;;;;;;14.63;73.97;101422.38;1664532;85;21147;-91
2022/07/25 03:07:19;;;;;;;5.53;3.60;;;;;;;14.68;73.91;101428.66;1691419;84;21473;-92
2022/07/25 03:09:46;;;;;;;4.35;3.95;;;;;;;14.69;73.83;101419.83;1669993;84;21730;-92
2022/07/25 03:12:13;;;;;;;5.17;3.70;;;;;;;14.74;73.86;101419.48;1669717;84;21099;-92
2022/07/25 03:14:39;;;;;;;6.30;4.50;;;;;;;14.80;73.83;101422.69;1670999;84;21084;-91
2022/07/25 03:17:06;;;;;;;5.17;3.95;;;;;;;14.86;73.74;101419.25;1671017;83;21074;-91
2022/07/25 03:19:44;;;;;;;7.05;4.40;;;;;;;14.92;73.68;101425.58;1671759;84;21122;-91
2022/07/25 03:22:11;;;;;;;8.88;4.42;;;;;;;14.87;73.54;101406.48;1645397;85;22592;-91
2022/07/25 03:24:38;;;;;;;6.47;4.25;;;;;;;15.10;73.73;101433.38;1683262;83;21126;-90
2022/07/25 03:27:05;;;;;;;7.85;3.52;;;;;;;15.21;73.57;101427.83;1673951;83;21129;-91
2022/07/25 03:29:35;;;;;;;8.35;4.00;;;;;;;15.34;73.68;101429.81;1673223;83;22188;-91
2022/07/25 03:32:02;;;;;;;4.45;3.52;;;;;;;15.51;73.63;101423.89;1657909;84;21116;-91
2022/07/25 03:34:31;;;;;;;8.45;3.98;;;;;;;15.70;73.44;101423.28;1657840;84;21073;-91
2022/07/25 03:36:59;;;;;;;5.08;3.22;;;;;;;15.89;73.29;101423.59;1665898;84;21110;-90
2022/07/25 03:39:26;;;;;;;7.10;3.42;;;;;;;16.10;73.19;101427.88;1658552;84;21133;-91
2022/07/25 03:41:53;;;;;;;5.58;3.65;;;;;;;16.36;73.04;101433.05;1647783;84;21073;-90
2022/07/25 03:44:22;;;;;;;4.95;3.02;;;;;;;16.85;73.41;101436.28;1664282;84;21053;-91
2022/07/25 03:46:52;;;;;;;4.85;3.17;;;;;;;17.87;74.42;101424.72;1689522;83;21761;-91
2022/07/25 03:49:18;;;;;;;4.87;3.08;;;;;;;19.53;74.48;101412.21;1677572;83;21078;-91
2022/07/25 03:51:44;;;;;;;4.60;3.10;;;;;;;21.14;72.70;101414.17;1669227;84;21155;-91
2022/07/25 03:54:14;;;;;;;4.97;2.80;;;;;;;22.27;70.34;101412.60;1672404;84;22140;-91
2022/07/25 03:56:47;;;;;;;6.20;3.30;;;;;;;23.38;68.80;101408.73;1672233;84;21195;-90
2022/07/25 03:59:17;;;;;;;9.33;2.98;;;;;;;24.50;66.81;101416.41;1672456;85;21861;-91
2022/07/25 04:01:45;;;;;;;3.90;2.80;;;;;;;25.50;64.99;101397.38;1673077;83;21044;-91
2022/07/25 04:04:12;;;;;;;5.53;2.90;;;;;;;26.50;63.44;101401.28;1672791;85;21072;-91
2022/07/25 04:06:39;;;;;;;12.58;3.50;;;;;;;27.48;61.48;101394.94;1670868;85;21100;-93
2022/07/25 04:09:09;;;;;;;5.15;2.80;;;;;;;28.42;59.74;101394.21;1668636;83;21038;-90
2022/07/25 04:11:37;;;;;;;4.00;2.83;;;;;;;29.32;57.86;101399.59;1681511;83;22519;-90
2022/07/25 04:14:06;;;;;;;6.28;2.87;;;;;;;29.98;55.98;101396.70;1681948;84;21143;-92
2022/07/25 04:16:35;;;;;;;5.10;2.30;;;;;;;30.66;54.53;101388.08;1683963;83;21110;-92
2022/07/25 04:19:05;;;;;;;6.00;2.80;;;;;;;31.50;52.82;101392.00;1683852;83;21142;-89
2022/07/25 04:21:31;;;;;;;5.10;2.75;;;;;;;32.16;51.21;101395.25;1678351;84;21074;-89
2022/07/25 04:23:58;;;;;;;9.98;2.55;;;;;;;32.84;50.22;101394.16;1662507;84;21904;-91
2022/07/25 04:26:25;;;;;;;3.22;2.33;;;;;;;33.58;48.77;101387.50;1677931;83;21082;-90
2022/07/25 04:28:55;;;;;;;7.40;2.50;;;;;;;34.18;47.28;101387.89;1644062;84;20998;-90
2022/07/25 04:31:24;;;;;;;3.92;2.25;;;;;;;34.79;46.03;101385.25;1664401;84;21083;-87
2022/07/25 04:33:52;;;;;;;5.03;2.30;;;;;;;35.53;45.33;101385.70;1668597;83;21100;-89
2022/07/25 04:36:23;;;;;;;3.83;2.30;;;;;;;36.27;43.79;101379.58;1667058;85;21797;-93
2022/07/25 04:38:51;;;;;;;3.95;2.20;;;;;;;36.72;42.27;101382.64;1669472;83;21400;-93
2022/07/25 04:41:21;;;;;;;8.08;1.98;;;;;;;36.15;40.61;101381.30;1664481;85;21501;-94
2022/07/25 04:43:50;;;;;;;5.95;2.22;;;;;;;34.68;39.99;101371.42;1670923;85;21099;-94
2022/07/25 04:46:19;;;;;;;8.63;2.17;;;;;;;33.03;39.83;101377.58;1695749;83;21002;-93
2022/07/25 04:49:04;;;;;;;4.62;2.17;;;;;;;31.55;40.59;101373.59;1672027;85;21845;-93
2022/07/25 04:51:20;;;;;;;4.05;1.95;;;;;;;30.50;41.23;101370.27;1665746;85;21182;-90
2022/07/25 04:53:47;;;;;;;3.50;1.75;;;;;;;29.61;41.87;101364.41;1672703;85;21574;-90
2022/07/25 04:56:17;;;;;;;2.83;1.98;;;;;;;28.93;42.48;101366.45;1649246;85;22050;-91
2022/07/25 04:58:43;;;;;;;6.67;2.60;;;;;;;28.32;43.08;101362.53;1665980;85;21593;-85
2022/07/25 05:01:10;;;;;;;4.30;2.27;;;;;;;27.66;43.52;101370.42;1666170;85;21807;-85
2022/07/25 05:03:37;;;;;;;6.22;2.60;;;;;;;27.07;44.22;101369.75;1656363;85;21134;-86
2022/07/25 05:06:03;;;;;;;4.85;2.42;;;;;;;26.63;44.81;101361.28;1697093;83;21524;-91
2022/07/25 05:08:33;;;;;;;2.83;2.10;;;;;;;26.23;45.39;101355.77;1665681;84;21557;-90
2022/07/25 05:11:02;;;;;;;3.98;2.30;;;;;;;25.89;45.83;101356.75;1668578;84;21100;-92
2022/07/25 05:13:33;;;;;;;6.92;2.10;;;;;;;25.53;46.26;101355.52;1670468;85;21825;-91
2022/07/25 05:16:01;;;;;;;3.98;2.00;;;;;;;25.29;46.62;101354.84;1669572;84;21731;-92
2022/07/25 05:18:31;;;;;;;2.47;1.85;;;;;;;25.11;46.92;101353.00;1667797;85;21087;-95
2022/07/25 05:20:57;;;;;;;6.00;2.40;;;;;;;24.98;47.33;101352.89;1667555;85;21989;-91
2022/07/25 05:23:24;;;;;;;3.27;1.92;;;;;;;24.94;47.74;101350.73;1651319;85;21457;-92
2022/07/25 05:25:51;;;;;;;5.35;2.62;;;;;;;24.92;47.88;101352.59;1670881;85;21627;-91
2022/07/25 05:28:17;;;;;;;6.25;2.30;;;;;;;25.13;48.04;101353.88;1670899;84;21634;-92
2022/07/25 05:30:44;;;;;;;6.03;2.05;;;;;;;25.67;48.24;101350.20;1671844;85;21127;-92
2022/07/25 05:33:11;;;;;;;4.53;2.08;;;;;;;27.22;48.78;101345.37;1667451;84;21079;-92
2022/07/25 05:35:38;;;;;;;3.65;2.12;;;;;;;29.55;47.77;101349.78;1669611;84;21593;-92
2022/07/25 05:38:05;;;;;;;5.45;2.33;;;;;;;31.71;45.69;101340.98;1704421;82;22102;-92
2022/07/25 05:40:32;;;;;;;3.35;2.10;;;;;;;33.21;43.35;101343.40;1705456;83;20994;-93
2022/07/25 05:42:58;;;;;;;6.28;2.20;;;;;;;33.56;41.37;101345.78;1681055;84;21113;-91
2022/07/25 05:45:25;;;;;;;2.35;1.90;;;;;;;33.71;40.29;101335.28;1683535;84;21117;-92
2022/07/25 05:47:52;;;;;;;4.20;1.82;;;;;;;32.73;39.34;101338.02;1683176;83;21670;-92
2022/07/25 05:50:19;;;;;;;1.90;1.52;;;;;;;31.63;39.40;101339.16;1679021;84;21836;-92
2022/07/25 05:52:46;;;;;;;5.40;2.05;;;;;;;30.55;39.52;101329.70;1701463;83;21169;-92
2022/07/25 05:55:12;;;;;;;3.80;1.85;;;;;;;29.56;40.02;101331.17;1727216;82;21561;-93
2022/07/25 05:57:39;;;;;;;3.08;1.80;;;;;;;28.78;40.73;101331.39;1688108;83;22302;-92
2022/07/25 06:00:08;;;;;;;6.12;2.00;;;;;;;28.17;41.31;101322.05;1709912;83;21077;-92
2022/07/25 06:02:34;;;;;;;2.10;1.90;;;;;;;27.62;41.75;101319.62;1711247;82;21748;-92
2022/07/25 06:05:01;;;;;;;2.80;2.02;;;;;;;27.07;42.27;101306.25;1685951;84;21103;-92
2022/07/25 06:07:28;;;;;;;3.55;2.02;;;;;;;26.81;42.77;101323.35;1726969;82;21082;-92
2022/07/25 06:09:55;;;;;;;4.03;2.10;;;;;;;26.57;43.22;101320.96;1726701;83;21098;-92
2022/07/25 06:12:22;;;;;;;3.45;2.35;;;;;;;26.33;43.45;101319.93;1726698;82;21720;-92
2022/07/25 06:14:49;;;;;;;2.47;1.98;;;;;;;26.12;43.87;101318.31;1713922;82;21759;-92
2022/07/25 06:17:15;;;;;;;4.67;2.05;;;;;;;26.01;44.22;101321.81;1653750;84;21158;-92
2022/07/25 06:19:42;;;;;;;3.45;2.20;;;;;;;25.92;44.54;101311.30;1675472;83;21074;-92
2022/07/25 06:22:10;;;;;;;2.27;1.98;;;;;;;25.78;44.80;101313.91;1647882;86;21050;-91
2022/07/25 06:24:37;;;;;;;3.42;2.80;;;;;;;25.71;45.28;101310.09;1679154;83;21103;-92
2022/07/25 06:27:04;;;;;;;5.00;2.50;;;;;;;25.68;45.71;101308.37;1670210;83;21900;-91
2022/07/25 06:29:30;;;;;;;3.72;2.10;;;;;;;25.65;45.84;101311.63;1672219;83;21595;-92
2022/07/25 06:31:57;;;;;;;4.50;2.10;;;;;;;25.64;45.79;101312.09;1677471;83;21082;-92
2022/07/25 06:34:24;;;;;;;3.58;2.12;;;;;;;25.60;45.80;101313.09;1672436;85;21355;-92
2022/07/25 06:36:51;;;;;;;4.67;2.20;;;;;;;25.53;46.03;101313.74;1662136;85;21074;-91
2022/07/25 06:39:17;;;;;;;5.30;2.40;;;;;;;25.54;46.01;101306.06;1673109;85;21919;-92
2022/07/25 06:41:44;;;;;;;5.22;2.10;;;;;;;25.50;45.97;101308.91;1664324;85;21074;-92
2022/07/25 06:44:11;;;;;;;3.45;2.27;;;;;;;25.46;46.02;101301.83;1672976;85;21134;-91
2022/07/25 06:46:38;;;;;;;4.78;2.17;;;;;;;25.39;46.07;101287.63;1672798;85;21093;-91
2022/07/25 06:49:05;;;;;;;4.40;2.60;;;;;;;25.36;46.26;101287.73;1672006;85;21617;-92
2022/07/25 06:51:32;;;;;;;2.83;2.50;;;;;;;25.29;46.20;101287.02;1672004;85;21761;-92
2022/07/25 06:53:59;;;;;;;3.72;2.45;;;;;;;25.26;46.20;101280.82;1672608;85;21111;-92
2022/07/25 06:56:30;;;;;;;3.20;2.55;;;;;;;25.17;46.26;101278.78;1653923;85;21510;-91
2022/07/25 06:58:55;;;;;;;4.08;2.50;;;;;;;25.13;46.28;101281.14;1671280;84;21068;-91
2022/07/25 07:01:21;;;;;;;3.40;2.30;;;;;;;25.07;46.31;101277.72;1672354;85;21076;-91
2022/07/25 07:03:48;;;;;;;5.12;2.98;;;;;;;25.04;46.29;101281.39;1673066;85;21885;-92
2022/07/25 07:06:15;;;;;;;4.30;2.52;;;;;;;25.02;46.36;101280.08;1672346;85;21032;-93
2022/07/25 07:08:42;;;;;;;5.55;2.75;;;;;;;25.03;46.49;101277.79;1671115;84;21091;-91
2022/07/25 07:11:13;;;;;;;2.37;2.17;;;;;;;25.10;46.65;101274.95;1658774;85;21108;-92
2022/07/25 07:13:39;;;;;;;2.62;2.40;;;;;;;25.10;46.32;101277.65;1682906;83;21085;-90
2022/07/25 07:16:07;;;;;;;5.65;2.65;;;;;;;25.05;46.38;101271.49;1665377;84;21734;-92
2022/07/25 07:18:45;;;;;;;2.87;2.67;;;;;;;25.09;46.54;101268.66;1666816;85;21709;-92
2022/07/25 07:21:15;;;;;;;3.22;2.92;;;;;;;25.13;46.49;101260.94;1669409;84;21144;-91
2022/07/25 07:23:42;;;;;;;3.62;2.75;;;;;;;25.15;46.36;101262.22;1663675;85;21096;-91
2022/07/25 07:26:08;;;;;;;6.22;3.02;;;;;;;25.12;46.40;101253.77;1667545;85;21076;-91
2022/07/25 07:28:38;;;;;;;4.03;3.05;;;;;;;25.16;46.56;101257.27;1676663;85;22725;-92
2022/07/25 07:31:06;;;;;;;10.50;2.85;;;;;;;25.21;46.90;101249.95;1680680;85;21083;-92
2022/07/25 07:33:34;;;;;;;6.80;2.83;;;;;;;25.31;47.15;101250.13;1660206;84;21082;-91
2022/07/25 07:36:01;;;;;;;4.70;2.92;;;;;;;25.43;47.08;101243.97;1658609;84;21108;-92
2022/07/25 07:38:28;;;;;;;3.80;2.58;;;;;;;25.48;46.85;101248.77;1670506;85;21076;-91
2022/07/25 07:40:55;;;;;;;3.75;2.67;;;;;;;25.50;46.48;101242.86;1663379;85;21760;-92
2022/07/25 07:43:34;;;;;;;5.12;2.80;;;;;;;25.46;45.98;101246.59;1668748;84;21092;-91
2022/07/25 07:46:01;;;;;;;5.08;2.83;;;;;;;25.43;46.14;101241.27;1662400;84;21080;-91
2022/07/25 07:48:30;;;;;;;4.58;3.55;;;;;;;25.50;46.24;101239.70;1669520;85;21092;-91
2022/07/25 07:50:57;;;;;;;7.65;3.27;;;;;;;25.56;45.96;101242.20;1670385;85;21171;-92
2022/07/25 07:56:09;;;;;;;2.83;2.55;;;;;;;25.72;46.18;101237.25;1668980;84;21060;-90
2022/07/25 07:58:39;;;;;;;3.92;2.35;;;;;;;25.81;45.99;101241.48;1670836;85;21071;-92
2022/07/25 08:01:06;;;;;;;3.87;2.55;;;;;;;25.88;46.03;101239.47;1669291;85;21116;-91
2022/07/25 08:03:36;;;;;;;3.50;2.55;;;;;;;25.97;46.05;101237.88;1669118;85;21171;-91
2022/07/25 08:06:03;;;;;;;4.28;2.60;;;;;;;25.99;45.83;101230.61;1668256;85;21810;-92
2022/07/25 08:08:33;;;;;;;4.83;2.67;;;;;;;25.96;45.56;101223.51;1666421;84;40049;-92
2022/07/25 08:11:00;;;;;;;3.65;2.50;;;;;;;25.97;45.67;101223.91;1668423;85;21160;-92
2022/07/25 08:13:32;;;;;;;4.60;2.45;;;;;;;25.97;45.45;101214.94;1668581;84;21150;-90
2022/07/25 08:16:00;;;;;;;3.75;2.52;;;;;;;25.97;45.49;101221.69;1666349;84;21095;-92
2022/07/25 08:18:28;;;;;;;2.80;2.10;;;;;;;25.98;45.58;101220.30;1668690;85;21715;-92
2022/07/25 08:20:55;;;;;;;3.08;2.50;;;;;;;26.02;45.55;101218.39;1666150;85;21074;-91
2022/07/25 08:23:24;;;;;;;4.10;2.35;;;;;;;26.08;45.76;101219.53;1705527;83;21090;-91
2022/07/25 08:25:50;;;;;;;3.65;2.27;;;;;;;26.18;45.86;101221.45;1667746;85;21573;-93
2022/07/25 08:28:17;;;;;;;4.80;2.50;;;;;;;26.25;45.58;101216.28;1664834;85;21039;-93
2022/07/25 08:30:44;;;;;;;4.50;2.70;;;;;;;26.17;45.46;101198.12;1645164;85;21766;-92
2022/07/25 08:33:14;;;;;;;5.03;2.50;;;;;;;26.34;45.28;101211.05;1670637;85;21120;-93
2022/07/25 08:35:52;;;;;;;3.00;2.33;;;;;;;26.42;45.25;101210.80;1669347;85;21130;-93
2022/07/25 08:38:27;;;;;;;7.58;2.85;;;;;;;26.50;45.00;101217.71;1670068;83;21140;-92
2022/07/25 08:40:54;;;;;;;3.10;2.40;;;;;;;26.55;44.96;101222.46;1671129;85;20989;-92
2022/07/25 08:43:22;;;;;;;5.45;2.67;;;;;;;26.58;44.39;101218.32;1667908;85;22330;-93
2022/07/25 08:45:55;;;;;;;4.05;2.72;;;;;;;26.55;44.36;101206.73;1665833;85;21668;-93
2022/07/25 08:48:29;;;;;;;4.85;2.77;;;;;;;26.66;44.52;101220.78;1667705;85;21082;-92
2022/07/25 08:51:15;;;;;;;6.28;2.65;;;;;;;26.70;44.52;101214.34;1663702;85;21088;-93
2022/07/25 08:57:28;;;;;;;5.10;2.27;;;;;;;26.80;44.52;101209.97;1559516;90;21163;-92
2022/07/25 09:00:43;;;;;;;;;;;;;;;;;;;;;
2022/07/25 09:03:39;;;;;;;6.40;2.60;;;;;;;26.84;44.26;101207.12;1510829;91;21464;-92
2022/07/25 09:07:00;;;;;;;3.02;2.22;;;;;;;26.85;43.84;101210.69;1533475;90;21178;-92
2022/07/25 09:09:17;;;;;;;3.15;2.17;;;;;;;26.83;43.71;101207.16;1521233;91;21172;-91
2022/07/25 09:15:27;;;;;;;5.47;2.58;;;;;;;26.87;43.58;101201.59;1523522;91;21145;-91
2022/07/25 09:18:16;;;;;;;4.80;2.60;;;;;;;26.87;43.35;101196.19;1459272;96;22154;-91
2022/07/25 09:27:54;;;;;;;4.70;3.08;;;;;;;26.81;43.19;101189.66;1421829;97;21167;-92
2022/07/25 09:30:36;;;;;;;4.03;2.22;;;;;;;26.85;43.33;101189.95;1413624;100;21171;-91
2022/07/25 09:37:03;;;;;;;22.15;12.95;;;;;;;26.94;42.79;101184.70;1411321;99;21195;-92
2022/07/25 09:39:59;;;;;;;9.13;3.70;;;;;;;26.94;42.67;101187.41;1407434;100;21219;-92
2022/07/25 09:45:16;;;;;;;67.55;33.80;;;;;;;27.02;42.51;101174.48;1415039;96;21343;-92
2022/07/25 09:48:22;;;;;;;44.45;27.13;;;;;;;27.08;42.53;101175.59;1477592;95;21656;-91
2022/07/25 09:51:01;;;;;;;17.77;9.55;;;;;;;27.14;42.50;101173.14;1475850;95;21215;-93
2022/07/25 09:53:31;;;;;;;4.55;3.85;;;;;;;27.12;42.10;101173.67;1495626;93;21209;-90
2022/07/25 09:56:16;;;;;;;10.28;4.75;;;;;;;27.13;41.93;101174.97;1558188;89;23064;-92
2022/07/25 09:59:28;;;;;;;;;;;;;;;;;;;;;
2022/07/25 10:01:56;;;;;;;6.72;3.20;;;;;;;27.20;42.13;101166.63;1548905;90;21134;-91
2022/07/25 10:05:31;;;;;;;9.45;5.00;;;;;;;27.22;41.96;101156.66;1549216;91;21278;-91
2022/07/25 10:08:22;;;;;;;5.65;3.58;;;;;;;27.26;42.03;101157.86;1473576;95;21561;-91
2022/07/25 10:10:58;;;;;;;9.83;6.42;;;;;;;27.32;41.93;101148.16;1466140;96;21632;-91
2022/07/25 10:24:36;;;;;;;;;;;;;;;;;;;;;
2022/07/25 10:28:02;;;;;;;;;;;;;;;;;;;;;
2022/07/25 10:31:21;;;;;;;6.58;3.85;;;;;;;27.59;41.62;101142.63;1334013;102;21194;-91
2022/07/25 10:33:49;;;;;;;8.23;3.60;;;;;;;27.61;41.40;101140.74;1404943;100;21245;-90
2022/07/25 10:36:49;;;;;;;3.90;2.92;;;;;;;27.66;41.37;101139.19;1404980;100;21168;-91
2022/07/25 10:39:36;;;;;;;6.67;2.65;;;;;;;27.66;41.16;101133.78;1395127;99;21207;-92
2022/07/25 10:42:49;;;;;;;;;;;;;;;;;;;;;
2022/07/25 10:45:43;;;;;;;6.45;3.35;;;;;;;27.81;41.51;101124.16;1421678;98;21309;-91
2022/07/25 10:48:32;;;;;;;4.12;3.47;;;;;;;27.91;41.51;101121.51;1443164;97;21184;-90
2022/07/25 10:51:40;;;;;;;3.05;2.65;;;;;;;27.99;41.20;101114.45;1403654;97;21191;-90
2022/07/25 10:54:16;;;;;;;8.03;3.62;;;;;;;28.01;41.04;101116.14;1483116;93;21540;-89
2022/07/25 10:56:57;;;;;;;5.05;3.10;;;;;;;28.03;40.87;101108.83;1509792;93;23362;-90
2022/07/25 10:59:47;;;;;;;3.90;2.77;;;;;;;28.04;40.86;101105.64;1513331;93;21123;-92
2022/07/25 11:02:14;;;;;;;3.85;3.00;;;;;;;28.07;40.77;101109.59;1509744;93;21245;-91
2022/07/25 11:04:45;;;;;;;2.90;2.60;;;;;;;28.09;40.71;101110.40;1498407;93;21151;-91
2022/07/25 11:07:16;;;;;;;3.20;2.90;;;;;;;28.13;40.68;101103.03;1526845;91;21103;-91
2022/07/25 11:09:43;;;;;;;5.85;3.50;;;;;;;28.14;40.35;101095.30;1561843;87;22959;-91
2022/07/25 11:13:06;;;;;;;;;;;;;;;;;;;;;
2022/07/25 11:18:17;;;;;;;3.72;3.42;;;;;;;28.20;40.35;101085.59;1657154;85;21138;-91
2022/07/25 11:20:44;;;;;;;5.83;3.50;;;;;;;28.25;40.27;101076.32;1666282;84;21672;-91
2022/07/25 11:23:11;;;;;;;5.95;4.15;;;;;;;28.25;40.31;101066.84;1667542;84;21751;-92
2022/07/25 11:25:37;;;;;;;3.35;3.05;;;;;;;28.36;40.20;101079.02;1691520;83;21590;-91
2022/07/25 11:28:04;;;;;;;8.68;3.17;;;;;;;28.43;40.31;101076.45;1696318;84;22086;-92
2022/07/25 11:30:33;;;;;;;5.83;3.08;;;;;;;28.42;40.12;101058.45;1659008;84;21102;-92
2022/07/25 11:33:03;;;;;;;4.08;3.20;;;;;;;28.54;40.12;101066.53;1687613;83;21058;-92
2022/07/25 11:35:32;;;;;;;5.50;3.25;;;;;;;28.57;39.83;101066.38;1676313;84;21072;-91
2022/07/25 11:38:02;;;;;;;3.85;3.40;;;;;;;28.60;39.94;101063.53;1660820;85;21123;-92
2022/07/25 11:40:32;;;;;;;3.87;2.85;;;;;;;28.64;39.74;101056.57;1667043;85;21074;-92
2022/07/25 11:42:58;;;;;;;5.50;3.00;;;;;;;28.70;39.83;101055.41;1660752;85;22530;-91
2022/07/25 11:45:29;;;;;;;9.53;3.17;;;;;;;28.77;39.83;101047.86;1679812;85;21554;-91
2022/07/25 11:48:14;;;;;;;2.90;2.60;;;;;;;28.82;39.66;101048.54;1679858;84;22318;-90
2022/07/25 11:50:43;;;;;;;3.47;2.80;;;;;;;28.86;39.90;101042.89;1680217;84;21074;-92
2022/07/25 11:53:18;;;;;;;3.40;2.60;;;;;;;28.95;39.59;101030.75;1659667;85;21094;-92
2022/07/25 11:55:43;;;;;;;6.62;5.03;;;;;;;28.97;39.56;101028.84;1695144;83;21055;-91
2022/07/25 11:58:12;;;;;;;7.20;2.98;;;;;;;29.00;39.40;101021.94;1671933;84;21111;-92
2022/07/25 12:00:51;;;;;;;3.72;3.08;;;;;;;29.04;39.28;101017.25;1671970;85;21938;-91
2022/07/25 12:03:22;;;;;;;4.53;2.87;;;;;;;29.05;39.27;101013.56;1692725;83;21062;-91
2022/07/25 12:05:50;;;;;;;4.22;2.80;;;;;;;29.10;39.19;101010.16;1689768;84;21070;-92
2022/07/25 12:08:23;;;;;;;8.03;2.60;;;;;;;29.14;39.21;101007.73;1689580;83;21070;-92
2022/07/25 12:10:54;;;;;;;3.02;2.50;;;;;;;29.19;39.13;101009.75;1653064;85;21111;-92
2022/07/25 12:13:27;;;;;;;7.58;2.72;;;;;;;29.23;39.04;101006.42;1686355;84;21863;-91
2022/07/25 12:15:55;;;;;;;;;;;;;;;29.26;38.96;101004.89;1695877;83;21010;-91
2022/07/25 12:18:22;;;;;;;6.45;4.60;;;;;;;29.23;38.61;101001.00;1679166;84;20201;-91
2022/07/25 12:20:52;;;;;;;3.47;2.70;;;;;;;29.23;38.88;100996.45;1680787;84;21100;-91
2022/07/25 12:23:20;;;;;;;3.67;2.90;;;;;;;29.27;38.94;100995.82;1680427;83;21088;-92
2022/07/25 12:25:47;;;;;;;5.65;3.10;;;;;;;29.33;38.91;100984.66;1678532;85;21807;-91